Nbp Island — V2FH3 — position and weather

sailwx.info

Track history (hours):
 
Tides and Currents Weather Stations Pressure Air Temp Water Temp Dewpoint Dewpoint Depression Visibility Wind Speed Wind Dir Waves Ship Positions

Nbp Island

Last reported at 2016-Jun-28 10:33 UTC. Time now 2016-Jun-28 11:36 UTC.
Position N 50°58' E 001°35'.

Length 107 m; draft 8 m.

Type: Cargo ship. MMSI: 305674000.

Date/timePositionNaut miles runAvg speedWind from/ knotsBaromVisibWave heightAir tempDewpointWater temp
2016-Jun-28 10:33N 50°58' E 001°35'6611.1
2016-Jun-28 04:34N 50°21' E 000°09'1312.7
2016-Jun-28 03:33N 50°17' W 000°11'1413.6
2016-Jun-28 02:33N 50°13' W 000°31'1414.3
2016-Jun-28 01:33N 50°10' W 000°52'3014.5
2016-Jun-27 23:31N 50°01' W 001°37'3612.2
2016-Jun-27 20:33N 49°52' W 002°31'1110.6
2016-Jun-27 19:33N 49°49' W 002°47'1010.3
2016-Jun-27 18:33N 49°46' W 003°02'10511.3
2016-Jun-27 09:16N 48°52' W 005°21'  
2016-Jun-24 18:03N 39°36' W 009°51'6 9.0
2016-Jun-24 17:23N 39°30' W 009°51'9 9.3
2016-Jun-24 16:26N 39°22' W 009°51'22 9.3
2016-Jun-24 14:04N 38°60' W 009°51'710.0
2016-Jun-24 13:22N 38°53' W 009°51'910.2
2016-Jun-24 12:31N 38°44' W 009°50'1010.1
2016-Jun-24 11:33N 38°34' W 009°49'10 9.8
2016-Jun-24 10:33N 38°25' W 009°46'10 9.6
2016-Jun-24 09:33N 38°15' W 009°44'10 9.6
2016-Jun-24 08:33N 38°06' W 009°41'1010.3
2016-Jun-24 07:32N 37°56' W 009°38'1410.8
2016-Jun-24 06:14N 37°42' W 009°34'1810.4
2016-Jun-24 04:29N 37°24' W 009°29'9 9.8
2016-Jun-24 03:33N 37°15' W 009°26'46 9.2
2016-Jun-23 22:33N 36°40' W 008°50'1110.8
2016-Jun-23 21:33N 36°36' W 008°37'1110.5
2016-Jun-23 20:32N 36°33' W 008°24'1110.9
2016-Jun-23 19:33N 36°29' W 008°12'1110.7
2016-Jun-23 18:32N 36°26' W 007°59'1210.6
2016-Jun-23 17:26N 36°22' W 007°45'910.4
2016-Jun-23 16:33N 36°19' W 007°34'1111.0
2016-Jun-23 15:33N 36°16' W 007°21'8710.8
2016-Jun-23 07:30N 35°58' W 005°36'17510.1
2016-Jun-22 14:10N 36°28' W 002°01'12710.9
2016-Jun-22 02:30N 36°44' E 000°35'1011.0
2016-Jun-22 01:33N 36°46' E 000°48'1310.5
2016-Jun-22 00:21N 36°48' E 001°04'810.3
2016-Jun-21 23:33N 36°49' E 001°14'  
Track history (hours):
 
Tides and Currents Weather Stations Pressure Air Temp Water Temp Dewpoint Dewpoint Depression Visibility Wind Speed Wind Dir Waves Ship Positions

Nbp Island

Last reported at 2016-Jun-28 10:33 UTC. Time now 2016-Jun-28 11:36 UTC.
Position N 50°58' E 001°35'.

Length 107 m; draft 8 m.

Type: Cargo ship. MMSI: 305674000.

Date/timePositionNaut miles runAvg speedWind from/ knotsBaromVisibWave heightAir tempDewpointWater temp
2016-Jun-28 10:33N 50°58' E 001°35'6611.1
2016-Jun-28 04:34N 50°21' E 000°09'1312.7
2016-Jun-28 03:33N 50°17' W 000°11'1413.6
2016-Jun-28 02:33N 50°13' W 000°31'1414.3
2016-Jun-28 01:33N 50°10' W 000°52'3014.5
2016-Jun-27 23:31N 50°01' W 001°37'3612.2
2016-Jun-27 20:33N 49°52' W 002°31'1110.6
2016-Jun-27 19:33N 49°49' W 002°47'1010.3
2016-Jun-27 18:33N 49°46' W 003°02'10511.3
2016-Jun-27 09:16N 48°52' W 005°21'  
2016-Jun-24 18:03N 39°36' W 009°51'6 9.0
2016-Jun-24 17:23N 39°30' W 009°51'9 9.3
2016-Jun-24 16:26N 39°22' W 009°51'22 9.3
2016-Jun-24 14:04N 38°60' W 009°51'710.0
2016-Jun-24 13:22N 38°53' W 009°51'910.2
2016-Jun-24 12:31N 38°44' W 009°50'1010.1
2016-Jun-24 11:33N 38°34' W 009°49'10 9.8
2016-Jun-24 10:33N 38°25' W 009°46'10 9.6
2016-Jun-24 09:33N 38°15' W 009°44'10 9.6
2016-Jun-24 08:33N 38°06' W 009°41'1010.3
2016-Jun-24 07:32N 37°56' W 009°38'1410.8
2016-Jun-24 06:14N 37°42' W 009°34'1810.4
2016-Jun-24 04:29N 37°24' W 009°29'9 9.8
2016-Jun-24 03:33N 37°15' W 009°26'46 9.2
2016-Jun-23 22:33N 36°40' W 008°50'1110.8
2016-Jun-23 21:33N 36°36' W 008°37'1110.5
2016-Jun-23 20:32N 36°33' W 008°24'1110.9
2016-Jun-23 19:33N 36°29' W 008°12'1110.7
2016-Jun-23 18:32N 36°26' W 007°59'1210.6
2016-Jun-23 17:26N 36°22' W 007°45'910.4
2016-Jun-23 16:33N 36°19' W 007°34'1111.0
2016-Jun-23 15:33N 36°16' W 007°21'8710.8
2016-Jun-23 07:30N 35°58' W 005°36'17510.1
2016-Jun-22 14:10N 36°28' W 002°01'12710.9
2016-Jun-22 02:30N 36°44' E 000°35'1011.0
2016-Jun-22 01:33N 36°46' E 000°48'1310.5
2016-Jun-22 00:21N 36°48' E 001°04'810.3
2016-Jun-21 23:33N 36°49' E 001°14'  

Dump ship's entire track history